createdAt,value
2019-05-28T00:01:11.146Z,98425.63
2019-05-28T00:03:44.436Z,98422.86
2019-05-28T00:06:13.291Z,98417.56
2019-05-28T00:08:41.088Z,98412.20
2019-05-28T00:11:08.882Z,98408.05
2019-05-28T00:13:38.487Z,98405.63
2019-05-28T00:16:09.791Z,98409.30
2019-05-28T00:18:36.459Z,98409.34
2019-05-28T00:21:04.305Z,98404.78
2019-05-28T00:23:32.087Z,98414.13
2019-05-28T00:25:59.834Z,98418.52
2019-05-28T00:28:27.632Z,98417.81
2019-05-28T00:30:55.641Z,98419.58
2019-05-28T00:33:38.571Z,98414.44
2019-05-28T00:36:06.341Z,98418.59
2019-05-28T00:38:34.148Z,98421.08
2019-05-28T00:41:01.930Z,98422.15
2019-05-28T00:43:29.753Z,98423.98
2019-05-28T00:45:57.461Z,98425.02
2019-05-28T00:48:25.352Z,98424.86
2019-05-28T00:50:53.104Z,98425.80
2019-05-28T00:53:20.883Z,98427.12
2019-05-28T00:55:49.277Z,98426.67
2019-05-28T00:58:17.837Z,98421.09
2019-05-28T01:00:48.322Z,98422.52
2019-05-28T01:03:18.333Z,98424.25
2019-05-28T01:05:46.231Z,98426.83
2019-05-28T01:08:14.002Z,98424.50
2019-05-28T01:10:42.297Z,98419.00
2019-05-28T01:13:10.054Z,98412.23
2019-05-28T01:15:38.253Z,98414.94
2019-05-28T01:18:06.042Z,98414.48
2019-05-28T01:20:33.851Z,98409.23
2019-05-28T01:23:01.661Z,98408.56
2019-05-28T01:25:48.963Z,98412.05
2019-05-28T01:28:16.792Z,98403.48
2019-05-28T01:30:54.870Z,98404.83
2019-05-28T01:33:19.384Z,98403.02
2019-05-28T01:35:47.094Z,98407.13
2019-05-28T01:38:14.889Z,98408.69
2019-05-28T01:40:42.874Z,98407.05
2019-05-28T01:43:15.910Z,98409.86
2019-05-28T01:45:43.730Z,98407.94
2019-05-28T01:48:11.552Z,98409.64
2019-05-28T01:50:39.321Z,98407.95
2019-05-28T01:53:07.233Z,98409.38
2019-05-28T01:55:35.043Z,98407.89
2019-05-28T01:58:02.861Z,98403.69
2019-05-28T02:00:30.588Z,98404.02
2019-05-28T02:02:58.914Z,98399.49
2019-05-28T02:05:26.687Z,98391.75
2019-05-28T02:07:54.496Z,98393.92
2019-05-28T02:10:24.059Z,98393.80
2019-05-28T02:12:51.807Z,98395.28
2019-05-28T02:15:21.861Z,98394.25
2019-05-28T02:17:49.653Z,98392.36
2019-05-28T02:20:17.569Z,98399.23
2019-05-28T02:22:45.388Z,98394.39
2019-05-28T02:25:13.442Z,98404.32
2019-05-28T02:27:41.255Z,98393.02
2019-05-28T02:30:10.409Z,98389.22
2019-05-28T02:32:38.218Z,98387.63
2019-05-28T02:35:07.033Z,98385.83
2019-05-28T02:37:34.882Z,98388.59
2019-05-28T02:40:04.145Z,98393.89
2019-05-28T02:42:32.488Z,98403.11
2019-05-28T02:45:00.284Z,98404.46
2019-05-28T02:47:28.051Z,98404.23
2019-05-28T02:49:55.863Z,98408.70
2019-05-28T02:52:25.160Z,98408.37
2019-05-28T02:54:53.037Z,98410.53
2019-05-28T02:57:23.144Z,98409.32
2019-05-28T02:59:52.500Z,98408.72
2019-05-28T03:02:23.851Z,98405.23
2019-05-28T03:04:55.124Z,98400.81
2019-05-28T03:07:24.075Z,98393.13
2019-05-28T03:09:55.732Z,98389.53
2019-05-28T03:12:23.444Z,98389.05
2019-05-28T03:14:51.463Z,98387.83
2019-05-28T03:17:20.137Z,98389.30
2019-05-28T03:19:47.939Z,98385.37
2019-05-28T03:22:16.890Z,98394.14
2019-05-28T03:24:48.051Z,98392.82
2019-05-28T03:27:15.852Z,98388.03
2019-05-28T03:29:43.641Z,98389.69
2019-05-28T03:32:11.492Z,98388.02
2019-05-28T03:34:42.039Z,98382.31
2019-05-28T03:37:10.659Z,98385.64
2019-05-28T03:39:40.912Z,98378.48
2019-05-28T03:42:08.729Z,98382.86
2019-05-28T03:44:36.610Z,98382.75
2019-05-28T03:47:04.391Z,98379.06
2019-05-28T03:49:32.327Z,98378.14
2019-05-28T03:52:00.035Z,98380.13
2019-05-28T03:54:28.382Z,98380.77
2019-05-28T03:56:58.912Z,98387.36
2019-05-28T03:59:26.734Z,98389.08
2019-05-28T04:01:54.447Z,98381.26
2019-05-28T04:04:22.262Z,98378.81
2019-05-28T04:06:53.117Z,98374.01
2019-05-28T04:09:20.924Z,98374.95
2019-05-28T04:11:48.738Z,98376.72
2019-05-28T04:14:16.542Z,98367.67
2019-05-28T04:16:44.386Z,98370.37
2019-05-28T04:19:12.469Z,98375.38
2019-05-28T04:21:42.344Z,98382.50
2019-05-28T04:24:10.089Z,98382.66
2019-05-28T04:26:38.000Z,98385.77
2019-05-28T04:29:05.789Z,98389.52
2019-05-28T04:31:33.917Z,98392.23
2019-05-28T04:34:01.735Z,98392.44
2019-05-28T04:36:29.490Z,98390.67
2019-05-28T04:38:57.288Z,98388.79
2019-05-28T04:41:25.055Z,98388.42
2019-05-28T04:43:53.080Z,98386.45
2019-05-28T04:46:22.226Z,98381.66
2019-05-28T04:48:49.963Z,98386.09
2019-05-28T04:51:17.705Z,98380.27
2019-05-28T04:53:45.725Z,98379.40
2019-05-28T04:56:13.505Z,98380.25
2019-05-28T04:58:44.059Z,98382.98
2019-05-28T05:01:11.867Z,98377.13
2019-05-28T05:03:39.697Z,98374.77
2019-05-28T05:06:07.530Z,98372.77
2019-05-28T05:08:38.067Z,98369.17
2019-05-28T05:11:05.774Z,98373.44
2019-05-28T05:13:35.618Z,98378.42
2019-05-28T05:16:03.519Z,98380.42
2019-05-28T05:18:31.354Z,98378.82
2019-05-28T05:20:59.169Z,98379.14
2019-05-28T05:23:27.529Z,98371.45
2019-05-28T05:25:55.388Z,98365.84
2019-05-28T05:28:23.333Z,98368.47
2019-05-28T05:30:51.067Z,98380.52
2019-05-28T05:33:20.611Z,98380.78
2019-05-28T05:35:48.748Z,98362.77
2019-05-28T05:38:16.756Z,98386.06
2019-05-28T05:40:44.454Z,98380.20
2019-05-28T05:43:12.231Z,98381.41
2019-05-28T05:45:40.009Z,98378.45
2019-05-28T05:48:07.784Z,98386.63
2019-05-28T05:50:35.574Z,98391.59
2019-05-28T05:53:03.454Z,98394.25
2019-05-28T05:55:31.228Z,98397.66
2019-05-28T05:57:58.975Z,98399.09
2019-05-28T06:00:26.846Z,98395.27
2019-05-28T06:02:55.088Z,98398.37
2019-05-28T06:05:24.983Z,98397.58
2019-05-28T06:07:52.757Z,98401.56
2019-05-28T06:10:20.626Z,98403.06
2019-05-28T06:12:48.739Z,98404.62
2019-05-28T06:15:17.310Z,98401.19
2019-05-28T06:17:45.067Z,98406.92
2019-05-28T06:20:13.954Z,98406.11
2019-05-28T06:22:41.759Z,98407.81
2019-05-28T06:25:09.608Z,98407.96
2019-05-28T06:27:37.408Z,98404.41
2019-05-28T06:30:05.779Z,98403.28
2019-05-28T06:32:35.300Z,98402.63
2019-05-28T06:35:06.915Z,98401.33
2019-05-28T06:37:34.722Z,98402.22
2019-05-28T06:40:05.505Z,98401.98
2019-05-28T06:42:38.094Z,98402.05
2019-05-28T06:45:05.031Z,98403.48
2019-05-28T06:47:33.538Z,98405.62
2019-05-28T06:50:01.323Z,98405.95
2019-05-28T06:52:29.117Z,98399.48
2019-05-28T06:54:58.417Z,98398.09
2019-05-28T06:57:26.544Z,98397.75
2019-05-28T06:59:54.369Z,98401.02
2019-05-28T07:02:22.157Z,98400.07
2019-05-28T07:04:49.920Z,98404.80
2019-05-28T07:07:17.842Z,98404.77
2019-05-28T07:09:45.657Z,98404.02
2019-05-28T07:12:13.431Z,98400.98
2019-05-28T07:14:41.536Z,98402.42
2019-05-28T07:17:09.232Z,98406.89
2019-05-28T07:19:39.103Z,98402.25
2019-05-28T07:22:06.860Z,98409.53
2019-05-28T07:24:34.999Z,98404.85
2019-05-28T07:27:03.170Z,98412.84
2019-05-28T07:29:33.393Z,98413.11
2019-05-28T07:32:01.130Z,98415.27
2019-05-28T07:34:31.281Z,98415.05
2019-05-28T07:36:58.686Z,98419.06
2019-05-28T07:39:26.724Z,98422.95
2019-05-28T07:41:54.524Z,98420.05
2019-05-28T07:44:22.528Z,98422.61
2019-05-28T07:46:50.281Z,98418.16
2019-05-28T07:49:20.919Z,98418.52
2019-05-28T07:51:48.679Z,98421.91
2019-05-28T07:54:16.645Z,98417.27
2019-05-28T07:56:44.385Z,98421.53
2019-05-28T07:59:12.127Z,98420.25
2019-05-28T08:01:40.018Z,98418.11
2019-05-28T08:04:08.054Z,98417.95
2019-05-28T08:06:53.466Z,98415.48
2019-05-28T08:09:06.886Z,98414.03
2019-05-28T08:11:34.715Z,98409.91
2019-05-28T08:14:02.674Z,98406.73
2019-05-28T08:16:30.500Z,98406.52
2019-05-28T08:18:58.303Z,98407.11
2019-05-28T08:21:26.007Z,98408.09
2019-05-28T08:23:53.888Z,98413.16
2019-05-28T08:26:21.675Z,98411.91
2019-05-28T08:28:49.479Z,98415.17
2019-05-28T08:31:21.192Z,98413.77
2019-05-28T08:33:49.488Z,98411.16
2019-05-28T08:36:17.316Z,98416.38
2019-05-28T08:38:45.150Z,98414.61
2019-05-28T08:41:12.943Z,98416.05
2019-05-28T08:43:40.765Z,98415.08
2019-05-28T08:46:08.520Z,98422.11
2019-05-28T08:48:36.399Z,98416.48
2019-05-28T08:51:04.544Z,98412.72
2019-05-28T08:53:32.345Z,98417.81
2019-05-28T08:56:00.129Z,98425.91
2019-05-28T08:58:27.920Z,98422.90
2019-05-28T09:00:55.712Z,98424.12
2019-05-28T09:03:23.633Z,98424.88
2019-05-28T09:05:53.770Z,98425.73
2019-05-28T09:08:37.765Z,98436.67
2019-05-28T09:10:51.230Z,98440.47
2019-05-28T09:13:19.092Z,98445.41
2019-05-28T09:15:46.882Z,98447.98
2019-05-28T09:18:14.614Z,98447.03
2019-05-28T09:20:42.392Z,98447.02
2019-05-28T09:23:15.370Z,98446.55
2019-05-28T09:25:43.134Z,98443.30
2019-05-28T09:28:28.558Z,98448.94
2019-05-28T09:30:40.637Z,98455.14
2019-05-28T09:33:08.400Z,98462.92
2019-05-28T09:35:44.479Z,98470.89
2019-05-28T09:38:07.229Z,98488.16
2019-05-28T09:40:49.195Z,98491.67
2019-05-28T09:43:04.830Z,98497.99
2019-05-28T09:45:32.824Z,98507.30
2019-05-28T09:48:00.678Z,98511.98
2019-05-28T09:50:30.976Z,98511.86
2019-05-28T09:52:58.199Z,98518.52
2019-05-28T09:55:26.012Z,98520.67
2019-05-28T09:57:53.751Z,98534.59
2019-05-28T10:00:24.155Z,98528.95
2019-05-28T10:02:52.022Z,98533.77
2019-05-28T10:05:20.528Z,98533.05
2019-05-28T10:07:48.371Z,98523.37
2019-05-28T10:10:16.550Z,98528.62
2019-05-28T10:12:44.637Z,98538.38
2019-05-28T10:15:13.118Z,98539.28
2019-05-28T10:17:40.909Z,98542.47
2019-05-28T10:20:09.962Z,98544.75
2019-05-28T10:22:37.751Z,98538.58
2019-05-28T10:25:08.089Z,98545.45
2019-05-28T10:27:35.859Z,98547.58
2019-05-28T10:30:06.489Z,98543.83
2019-05-28T10:32:34.283Z,98545.41
2019-05-28T10:35:04.173Z,98547.73
2019-05-28T10:37:32.049Z,98550.84
2019-05-28T10:40:00.215Z,98550.95
2019-05-28T10:42:28.115Z,98552.94
2019-05-28T10:44:56.098Z,98553.30
2019-05-28T10:47:23.964Z,98548.07
2019-05-28T10:49:51.697Z,98546.11
2019-05-28T10:52:21.630Z,98549.38
2019-05-28T10:54:49.657Z,98547.20
2019-05-28T10:57:17.389Z,98537.28
2019-05-28T10:59:45.134Z,98533.52
2019-05-28T11:02:12.934Z,98534.23
2019-05-28T11:04:40.728Z,98535.35
2019-05-28T11:07:08.532Z,98534.88
2019-05-28T11:09:36.432Z,98528.92
2019-05-28T11:12:04.333Z,98522.20
2019-05-28T11:14:32.350Z,98530.55
2019-05-28T11:17:00.161Z,98531.48
2019-05-28T11:19:27.922Z,98525.97
2019-05-28T11:21:57.783Z,98514.42
2019-05-28T11:24:25.678Z,98529.23
2019-05-28T11:26:53.455Z,98531.05
2019-05-28T11:29:21.320Z,98527.42
2019-05-28T11:31:49.205Z,98525.24
2019-05-28T11:34:19.992Z,98525.02
2019-05-28T11:36:47.810Z,98520.87
2019-05-28T11:39:35.048Z,98520.42
2019-05-28T11:42:03.367Z,98520.98
2019-05-28T11:44:33.774Z,98528.63
2019-05-28T11:47:01.634Z,98533.94
2019-05-28T11:49:29.401Z,98526.16
2019-05-28T11:51:57.263Z,98533.78
2019-05-28T11:54:25.059Z,98531.05
2019-05-28T11:56:53.013Z,98527.88
2019-05-28T11:59:20.844Z,98530.04
2019-05-28T12:01:48.641Z,98519.52
2019-05-28T12:04:16.517Z,98505.30
2019-05-28T12:06:44.364Z,98510.72
2019-05-28T12:09:12.270Z,98520.61
2019-05-28T12:11:40.099Z,98525.05
2019-05-28T12:14:09.334Z,98525.38
2019-05-28T12:16:37.156Z,98525.22
2019-05-28T12:19:04.966Z,98523.34
2019-05-28T12:21:32.772Z,98525.41
2019-05-28T12:24:00.814Z,98526.72
2019-05-28T12:26:28.840Z,98527.50
2019-05-28T12:28:57.083Z,98527.10
2019-05-28T12:31:26.974Z,98522.98
2019-05-28T12:33:54.985Z,98523.61
2019-05-28T12:36:22.774Z,98523.08
2019-05-28T12:38:53.503Z,98522.89
2019-05-28T12:41:21.287Z,98525.95
2019-05-28T12:43:49.367Z,98522.21
2019-05-28T12:46:17.233Z,98530.41
2019-05-28T12:48:45.042Z,98532.00
2019-05-28T12:51:12.968Z,98536.30
2019-05-28T12:53:49.836Z,98530.62
2019-05-28T12:56:10.602Z,98532.31
2019-05-28T12:58:43.138Z,98528.75
2019-05-28T13:01:08.214Z,98536.22
2019-05-28T13:03:39.258Z,98539.14
2019-05-28T13:06:07.647Z,98540.55
2019-05-28T13:08:35.420Z,98537.84
2019-05-28T13:11:03.438Z,98543.03
2019-05-28T13:13:32.505Z,98543.98
2019-05-28T13:16:00.837Z,98536.97
2019-05-28T13:18:28.771Z,98539.27
2019-05-28T13:20:56.732Z,98541.53
2019-05-28T13:23:26.611Z,98550.05
2019-05-28T13:25:54.504Z,98554.30
2019-05-28T13:28:22.493Z,98550.16
2019-05-28T13:30:50.291Z,98547.67
2019-05-28T13:33:18.160Z,98558.08
2019-05-28T13:35:48.749Z,98558.13
2019-05-28T13:38:26.340Z,98563.80
2019-05-28T13:40:46.337Z,98564.34
2019-05-28T13:43:14.399Z,98564.89
2019-05-28T13:45:42.267Z,98566.78
2019-05-28T13:48:10.073Z,98569.39
2019-05-28T13:50:38.026Z,98568.05
2019-05-28T13:53:05.956Z,98561.39
2019-05-28T13:55:33.868Z,98571.28
2019-05-28T13:58:01.675Z,98571.66
2019-05-28T14:00:29.546Z,98571.02
2019-05-28T14:02:57.353Z,98568.70
2019-05-28T14:05:25.468Z,98563.05
2019-05-28T14:07:53.249Z,98569.30
2019-05-28T14:10:21.868Z,98562.66
2019-05-28T14:12:52.155Z,98563.11
2019-05-28T14:15:21.483Z,98562.98
2019-05-28T14:17:49.347Z,98562.36
2019-05-28T14:20:18.797Z,98545.34
2019-05-28T14:22:46.665Z,98563.13
2019-05-28T14:25:16.883Z,98557.59
2019-05-28T14:27:44.710Z,98551.02
2019-05-28T14:30:15.417Z,98550.22
2019-05-28T14:32:43.384Z,98542.63
2019-05-28T14:35:13.083Z,98546.72
2019-05-28T14:37:40.823Z,98552.69
2019-05-28T14:40:12.284Z,98555.22
2019-05-28T14:42:40.101Z,98555.05
2019-05-28T14:45:08.852Z,98554.02
2019-05-28T14:47:36.592Z,98561.99
2019-05-28T14:50:06.318Z,98572.47
2019-05-28T14:52:34.179Z,98572.92
2019-05-28T14:55:02.043Z,98583.95
2019-05-28T14:57:29.821Z,98586.78
2019-05-28T14:59:57.685Z,98585.92
2019-05-28T15:02:25.513Z,98585.77
2019-05-28T15:04:55.467Z,98595.56
2019-05-28T15:07:23.269Z,98592.14
2019-05-28T15:09:51.073Z,98588.14
2019-05-28T15:12:18.944Z,98582.75
2019-05-28T15:14:46.861Z,98597.87
2019-05-28T15:17:14.757Z,98600.36
2019-05-28T15:19:42.580Z,98603.66
2019-05-28T15:22:10.342Z,98619.73
2019-05-28T15:24:38.232Z,98644.78
2019-05-28T15:27:06.023Z,98654.38
2019-05-28T15:29:33.891Z,98656.13
2019-05-28T15:32:02.423Z,98677.44
2019-05-28T15:34:30.949Z,98688.11
2019-05-28T15:36:58.740Z,98674.05
2019-05-28T15:39:38.992Z,98680.17
2019-05-28T15:41:56.231Z,98685.26
2019-05-28T15:44:43.537Z,98675.59
2019-05-28T15:47:11.327Z,98676.36
2019-05-28T15:49:39.283Z,98669.42
2019-05-28T15:52:08.106Z,98669.33
2019-05-28T15:54:36.047Z,98671.81
2019-05-28T15:57:04.537Z,98668.59
2019-05-28T15:59:32.406Z,98681.69
2019-05-28T16:02:00.220Z,98677.07
2019-05-28T16:04:28.327Z,98668.76
2019-05-28T16:06:56.251Z,98669.99
2019-05-28T16:09:24.990Z,98681.30
2019-05-28T16:11:53.343Z,98690.59
2019-05-28T16:14:24.915Z,98694.30
2019-05-28T16:16:53.757Z,98691.27
2019-05-28T16:19:22.434Z,98700.11
2019-05-28T16:21:50.932Z,98710.98
2019-05-28T16:24:20.322Z,98728.94
2019-05-28T16:26:48.311Z,98724.78
2019-05-28T16:29:21.203Z,98728.20
2019-05-28T16:31:49.884Z,98723.94
2019-05-28T16:34:18.211Z,98729.23
2019-05-28T16:36:47.025Z,98747.88
2019-05-28T16:39:15.450Z,98762.62
2019-05-28T16:41:44.045Z,98778.22
2019-05-28T16:44:17.750Z,98784.27
2019-05-28T16:46:46.073Z,98795.05
2019-05-28T16:49:13.926Z,98804.70
2019-05-28T16:51:41.775Z,98806.02
2019-05-28T16:54:19.158Z,98804.61
2019-05-28T16:56:39.586Z,98811.35
2019-05-28T16:59:07.556Z,98811.06
2019-05-28T17:01:35.354Z,98808.78
2019-05-28T17:04:04.058Z,98793.26
2019-05-28T17:06:32.241Z,98785.94
2019-05-28T17:09:00.713Z,98792.15
2019-05-28T17:11:30.893Z,98787.35
2019-05-28T17:13:59.526Z,98775.14
2019-05-28T17:16:27.753Z,98757.63
2019-05-28T17:18:56.155Z,98738.30
2019-05-28T17:21:25.655Z,98737.31
2019-05-28T17:23:54.763Z,98738.83
2019-05-28T17:26:26.007Z,98760.84
2019-05-28T17:28:54.320Z,98772.06
2019-05-28T17:31:23.133Z,98782.45
2019-05-28T17:33:51.513Z,98801.00
2019-05-28T17:36:20.113Z,98810.19
2019-05-28T17:38:50.778Z,98816.61
2019-05-28T17:41:20.142Z,98816.61
2019-05-28T17:43:59.825Z,98817.74
2019-05-28T17:46:31.486Z,98815.09
2019-05-28T17:49:00.708Z,98813.77
2019-05-28T17:51:30.224Z,98814.34
2019-05-28T17:53:59.712Z,98809.44
2019-05-28T17:56:31.301Z,98814.44
2019-05-28T17:58:59.831Z,98822.78
2019-05-28T18:01:27.597Z,98821.25
2019-05-28T18:03:55.735Z,98825.67
2019-05-28T18:06:23.802Z,98820.74
2019-05-28T18:08:51.890Z,98817.31
2019-05-28T18:11:19.972Z,98822.72
2019-05-28T18:13:48.891Z,98831.69
2019-05-28T18:16:17.460Z,98833.11
2019-05-28T18:18:45.678Z,98836.13
2019-05-28T18:21:13.707Z,98844.91
2019-05-28T18:23:42.244Z,98840.31
2019-05-28T18:26:10.598Z,98842.70
2019-05-28T18:28:38.675Z,98847.70
2019-05-28T18:31:06.988Z,98842.03
2019-05-28T18:33:35.576Z,98848.65
2019-05-28T18:36:03.848Z,98852.97
2019-05-28T18:38:32.219Z,98849.17
2019-05-28T18:41:00.357Z,98855.78
2019-05-28T18:43:28.615Z,98861.05
2019-05-28T18:45:56.780Z,98867.91
2019-05-28T18:48:24.612Z,98867.65
2019-05-28T18:50:52.977Z,98869.50
2019-05-28T18:53:21.038Z,98874.48
2019-05-28T18:55:49.634Z,98875.77
2019-05-28T18:58:17.601Z,98879.83
2019-05-28T19:00:48.685Z,98886.98
2019-05-28T19:03:16.635Z,98893.37
2019-05-28T19:05:44.473Z,98897.66
2019-05-28T19:08:12.268Z,98905.23
2019-05-28T19:10:40.902Z,98911.48
2019-05-28T19:13:08.763Z,98915.41
2019-05-28T19:15:36.707Z,98925.62
2019-05-28T19:18:04.518Z,98927.23
2019-05-28T19:20:32.450Z,98926.98
2019-05-28T19:23:00.340Z,98929.45
2019-05-28T19:25:28.167Z,98927.13
2019-05-28T19:27:55.983Z,98928.84
2019-05-28T19:30:33.001Z,98929.82
2019-05-28T19:33:02.167Z,98933.47
2019-05-28T19:35:29.993Z,98940.19
2019-05-28T19:37:58.618Z,98938.46
2019-05-28T19:40:35.532Z,98950.09
2019-05-28T19:43:03.788Z,98949.06
2019-05-28T19:45:31.653Z,98954.67
2019-05-28T19:47:59.447Z,98961.80
2019-05-28T19:50:27.380Z,98964.52
2019-05-28T19:53:00.409Z,98967.54
2019-05-28T19:55:31.754Z,98969.20
2019-05-28T19:57:59.641Z,98978.24
2019-05-28T20:00:27.873Z,98972.81
2019-05-28T20:02:55.943Z,98979.51
2019-05-28T20:05:23.755Z,98980.59
2019-05-28T20:07:51.688Z,98986.59
2019-05-28T20:10:19.853Z,98989.30
2019-05-28T20:12:47.752Z,98996.77
2019-05-28T20:15:16.264Z,99001.98
2019-05-28T20:17:44.145Z,99003.53
2019-05-28T20:20:15.605Z,99008.20
2019-05-28T20:22:43.415Z,99011.54
2019-05-28T20:25:12.074Z,99023.17
2019-05-28T20:27:43.077Z,99026.72
2019-05-28T20:30:14.603Z,99032.55
2019-05-28T20:32:42.459Z,99035.89
2019-05-28T20:35:10.881Z,99044.86
2019-05-28T20:37:39.615Z,99049.06
2019-05-28T20:40:12.166Z,99052.27
2019-05-28T20:42:40.051Z,99050.39
2019-05-28T20:45:08.979Z,99047.66
2019-05-28T20:47:36.806Z,99055.63
2019-05-28T20:50:06.376Z,99058.01
2019-05-28T20:52:35.551Z,99062.81
2019-05-28T20:55:04.258Z,99060.70
2019-05-28T20:57:31.984Z,99064.28
2019-05-28T20:59:59.803Z,99063.69
2019-05-28T21:02:27.670Z,99066.64
2019-05-28T21:04:56.738Z,99066.36
2019-05-28T21:07:24.668Z,99076.77
2019-05-28T21:09:52.408Z,99071.00
2019-05-28T21:12:20.222Z,99069.08
2019-05-28T21:14:48.659Z,99070.56
2019-05-28T21:17:19.023Z,99075.34
2019-05-28T21:19:46.808Z,99076.81
2019-05-28T21:22:26.011Z,99078.56
2019-05-28T21:24:44.620Z,99083.25
2019-05-28T21:27:12.451Z,99083.19
2019-05-28T21:29:40.145Z,99080.38
2019-05-28T21:32:08.022Z,99076.55
2019-05-28T21:34:35.837Z,99081.34
2019-05-28T21:37:05.634Z,99077.70
2019-05-28T21:39:33.325Z,99080.20
2019-05-28T21:42:02.226Z,99085.38
2019-05-28T21:44:30.780Z,99090.33
2019-05-28T21:46:58.624Z,99095.23
2019-05-28T21:49:26.534Z,99096.39
2019-05-28T21:51:54.604Z,99098.19
2019-05-28T21:54:22.422Z,99096.77
2019-05-28T21:56:53.164Z,99097.22
2019-05-28T21:59:21.254Z,99104.86
2019-05-28T22:01:49.380Z,99107.21
2019-05-28T22:04:17.167Z,99112.38
2019-05-28T22:06:44.934Z,99119.25
2019-05-28T22:09:12.697Z,99114.53
2019-05-28T22:11:40.520Z,99116.72
2019-05-28T22:14:08.636Z,99121.66
2019-05-28T22:16:36.611Z,99128.54
2019-05-28T22:19:04.638Z,99128.39
2019-05-28T22:21:32.662Z,99136.01
2019-05-28T22:24:00.644Z,99129.67
2019-05-28T22:26:29.305Z,99131.23
2019-05-28T22:28:57.369Z,99134.25
2019-05-28T22:31:25.418Z,99140.09
2019-05-28T22:33:53.572Z,99146.95
2019-05-28T22:36:21.302Z,99148.98
2019-05-28T22:39:08.919Z,99150.80
2019-05-28T22:41:38.878Z,99161.52
2019-05-28T22:44:07.092Z,99160.52
2019-05-28T22:46:35.237Z,99165.46
2019-05-28T22:49:03.369Z,99164.31
2019-05-28T22:51:31.161Z,99167.44
2019-05-28T22:53:59.724Z,99167.95
2019-05-28T22:56:27.731Z,99169.92
2019-05-28T22:58:55.561Z,99164.81
2019-05-28T23:01:23.396Z,99159.59
2019-05-28T23:03:51.105Z,99165.05
2019-05-28T23:06:18.884Z,99163.90
2019-05-28T23:08:46.683Z,99168.28
2019-05-28T23:11:14.450Z,99169.97
2019-05-28T23:13:46.850Z,99172.16
2019-05-28T23:16:11.940Z,99174.31
2019-05-28T23:18:39.771Z,99175.25
2019-05-28T23:21:08.806Z,99182.68
2019-05-28T23:23:36.671Z,99178.70
2019-05-28T23:26:05.282Z,99192.50
2019-05-28T23:28:33.163Z,99197.97
2019-05-28T23:31:01.824Z,99194.74
2019-05-28T23:33:29.758Z,99199.27
2019-05-28T23:35:57.487Z,99199.53
2019-05-28T23:38:25.545Z,99205.12
2019-05-28T23:40:53.303Z,99204.66
2019-05-28T23:43:21.057Z,99205.21
2019-05-28T23:45:50.224Z,99213.52
2019-05-28T23:48:18.545Z,99212.36
2019-05-28T23:50:46.596Z,99210.80
2019-05-28T23:53:14.549Z,99211.78
2019-05-28T23:55:42.438Z,99216.30
2019-05-28T23:58:10.221Z,99224.43
